MMZH/ZIH METAR and TAF weather

Enter ICAO airport designator
Station Type Date Time Source
MMZH METAR 2019/04/25 15:55 UTC NOAA

MMZH 251555Z 22004KT 7SM SCT250 27/20 A2993 RMK 8/002 HZY MSGTX MMMX


Station Type Date Time Source
MMZH Decoded METAR 2019/04/25 15:55 UTC NOAA

Ixtapa-Zihuatanejo, Mexico (MMZH) 17-36N 101-28W
Apr 25, 2019 - 11:55 AM EDT / 2019.04.25 1555 UTC
Wind: from the SW (220 degrees) at 5 MPH (4 KT):0
Visibility: 7 mile(s):0
Sky conditions: partly cloudy
Temperature: 80 F (27 C)
Dew Point: 68 F (20 C)
Relative Humidity: 65%
Pressure (altimeter): 29.93 in. Hg (1013 hPa)
ob: MMZH 251555Z 22004KT 7SM SCT250 27/20 A2993 RMK 8/002 HZY MSGTX MMMX
cycle: 16

Station Type Date Time Source
MMZH TAF 2019/04/25 18:26 UTC NOAA

TAF MMZH 251619Z 2518/2618 23012KT P6SM BKN250
FM260300 00000KT P6SM BKN250

Example: see airport list